Time;durP1;ratioP1;P1;durP2;ratioP2;P2;SDS_P1;SDS_P2;PMS_P1;PMS_P2;Temp;Humidity;BMP_temperature;BMP_pressure;BME280_temperature;BME280_humidity;BME280_pressure;Samples;Min_cycle;Max_cycle;Signal;HPM_P1;HPM_P2
2022/10/12 00:01:34;;;;;;;17.87;16.27;;;;;;;;;;1778244;79;617841;-75
2022/10/12 00:04:04;;;;;;;17.63;16.20;;;;;;;;;;1770364;75;617837;-75
2022/10/12 00:06:33;;;;;;;18.23;16.43;;;;;;;;;;1803386;77;617837;-75
2022/10/12 00:09:01;;;;;;;17.80;16.23;;;;;;;;;;1795971;77;617743;-75
2022/10/12 00:11:30;;;;;;;18.20;16.70;;;;;;;;;;1803228;77;617778;-75
2022/10/12 00:13:59;;;;;;;17.50;15.83;;;;;;;;;;1741676;77;617103;-75
2022/10/12 00:16:30;;;;;;;18.07;16.17;;;;;;;;;;1777126;79;617845;-75
2022/10/12 00:18:58;;;;;;;17.33;15.67;;;;;;;;;;1771101;77;616897;-75
2022/10/12 00:21:28;;;;;;;18.57;16.37;;;;;;;;;;1746994;80;617960;-75
2022/10/12 00:23:58;;;;;;;17.83;16.07;;;;;;;;;;1715717;77;617102;-74
2022/10/12 00:26:27;;;;;;;17.63;16.13;;;;;;;;;;1803304;75;616955;-75
2022/10/12 00:28:56;;;;;;;17.20;15.47;;;;;;;;;;1819848;75;617732;-75
2022/10/12 00:31:26;;;;;;;17.87;16.27;;;;;;;;;;1803549;75;617719;-74
2022/10/12 00:33:54;;;;;;;18.87;16.60;;;;;;;;;;1803333;75;615624;-74
2022/10/12 00:36:24;;;;;;;17.33;15.73;;;;;;;;;;1803216;75;617765;-75
2022/10/12 00:38:55;;;;;;;16.90;15.57;;;;;;;;;;1803192;75;616087;-75
2022/10/12 00:41:24;;;;;;;17.20;15.73;;;;;;;;;;1827609;75;616891;-76
2022/10/12 00:43:53;;;;;;;17.90;16.40;;;;;;;;;;1828083;76;615162;-75
2022/10/12 00:46:24;;;;;;;19.07;17.30;;;;;;;;;;1803338;76;617829;-75
2022/10/12 00:48:55;;;;;;;17.93;16.60;;;;;;;;;;1748358;79;615968;-75
2022/10/12 00:51:23;;;;;;;17.30;15.70;;;;;;;;;;1748101;79;617904;-74
2022/10/12 00:53:54;;;;;;;18.00;16.80;;;;;;;;;;1748520;79;615259;-74
2022/10/12 00:56:26;;;;;;;18.30;16.40;;;;;;;;;;1738055;79;616873;-74
2022/10/12 00:58:57;;;;;;;17.87;16.27;;;;;;;;;;1758358;78;617113;-75
2022/10/12 01:01:25;;;;;;;16.90;15.63;;;;;;;;;;1797898;77;617783;-75
2022/10/12 01:03:54;;;;;;;16.40;15.10;;;;;;;;;;1762336;79;615706;-74
2022/10/12 01:06:23;;;;;;;16.90;15.60;;;;;;;;;;1761494;79;616994;-75
2022/10/12 01:08:52;;;;;;;16.70;15.47;;;;;;;;;;1760995;79;615009;-74
2022/10/12 01:11:20;;;;;;;16.90;15.70;;;;;;;;;;1785412;78;617162;-74
2022/10/12 01:13:48;;;;;;;16.60;15.07;;;;;;;;;;1738037;80;615028;-74
2022/10/12 01:16:22;;;;;;;17.87;16.07;;;;;;;;;;1730505;79;616896;-75
2022/10/12 01:18:53;;;;;;;17.10;15.50;;;;;;;;;;1764957;78;615739;-74
2022/10/12 01:21:22;;;;;;;17.77;16.30;;;;;;;;;;1764850;78;616916;-75
2022/10/12 01:23:58;;;;;;;19.53;16.20;;;;;;;;;;1786272;78;615152;-75
2022/10/12 01:26:37;;;;;;;16.90;15.50;;;;;;;;;;1765287;78;616916;-75
2022/10/12 01:29:08;;;;;;;17.23;15.67;;;;;;;;;;1763190;79;616860;-75
2022/10/12 01:34:35;;;;;;;16.30;15.20;;;;;;;;;;1800978;78;121139;-73
2022/10/12 01:37:05;;;;;;;16.70;15.60;;;;;;;;;;1744982;79;616989;-73
2022/10/12 01:39:35;;;;;;;16.13;14.83;;;;;;;;;;1689169;83;617152;-74
2022/10/12 01:42:06;;;;;;;16.23;15.07;;;;;;;;;;1698824;81;616964;-73
2022/10/12 01:44:35;;;;;;;17.10;15.73;;;;;;;;;;1694861;81;617031;-73
2022/10/12 01:47:04;;;;;;;16.07;14.70;;;;;;;;;;1674797;84;617034;-74
2022/10/12 01:49:34;;;;;;;16.87;15.47;;;;;;;;;;1655246;84;617300;-73
2022/10/12 01:52:16;;;;;;;17.03;15.73;;;;;;;;;;1646531;82;616958;-74
2022/10/12 01:54:49;;;;;;;15.83;14.50;;;;;;;;;;1710659;81;615184;-73
2022/10/12 01:57:20;;;;;;;17.57;15.97;;;;;;;;;;1685576;83;617985;-74
2022/10/12 01:59:52;;;;;;;17.13;14.90;;;;;;;;;;1668935;83;615289;-73
2022/10/12 02:02:24;;;;;;;16.77;15.23;;;;;;;;;;1738064;80;617015;-73
2022/10/12 02:04:54;;;;;;;16.00;14.47;;;;;;;;;;1699108;82;615369;-73
2022/10/12 02:07:24;;;;;;;17.33;15.70;;;;;;;;;;1730270;81;617178;-74
2022/10/12 02:09:54;;;;;;;17.33;15.77;;;;;;;;;;1745948;81;615017;-74
2022/10/12 02:12:24;;;;;;;16.60;15.03;;;;;;;;;;1748181;81;616852;-74
2022/10/12 02:14:54;;;;;;;16.40;14.90;;;;;;;;;;1748227;81;615067;-73
2022/10/12 02:17:23;;;;;;;16.87;15.33;;;;;;;;;;1724033;81;616985;-73
2022/10/12 02:19:55;;;;;;;17.23;15.73;;;;;;;;;;1748226;81;615074;-74
2022/10/12 02:22:25;;;;;;;17.30;15.80;;;;;;;;;;1724186;81;616878;-73
2022/10/12 02:24:55;;;;;;;16.43;15.23;;;;;;;;;;1748155;79;615176;-75
2022/10/12 02:27:25;;;;;;;16.90;15.40;;;;;;;;;;1748378;81;616853;-75
2022/10/12 02:29:54;;;;;;;16.70;15.00;;;;;;;;;;1748212;80;615080;-75
2022/10/12 02:32:23;;;;;;;15.70;14.70;;;;;;;;;;1723591;81;616887;-75
2022/10/12 02:34:55;;;;;;;15.83;14.33;;;;;;;;;;1723649;81;615753;-75
2022/10/12 02:37:27;;;;;;;16.10;14.90;;;;;;;;;;1748180;81;616941;-75
2022/10/12 02:39:57;;;;;;;16.60;15.03;;;;;;;;;;1740554;81;616977;-75
2022/10/12 02:42:27;;;;;;;16.27;14.97;;;;;;;;;;1724379;81;617082;-75
2022/10/12 02:44:59;;;;;;;15.63;14.00;;;;;;;;;;1715752;81;616923;-75
2022/10/12 02:47:29;;;;;;;15.60;14.30;;;;;;;;;;1723368;81;617120;-75
2022/10/12 02:49:58;;;;;;;16.07;14.53;;;;;;;;;;1715968;81;617711;-75
2022/10/12 02:52:27;;;;;;;16.53;14.73;;;;;;;;;;1723270;81;617004;-75
2022/10/12 02:54:56;;;;;;;17.83;16.07;;;;;;;;;;1739864;80;616976;-75
2022/10/12 02:57:25;;;;;;;17.27;15.57;;;;;;;;;;1723006;81;616949;-75
2022/10/12 02:59:54;;;;;;;15.77;14.33;;;;;;;;;;1723529;81;615076;-75
2022/10/12 03:02:22;;;;;;;15.93;14.50;;;;;;;;;;1722874;81;616931;-75
2022/10/12 03:04:52;;;;;;;15.73;14.43;;;;;;;;;;1747520;81;615980;-75
2022/10/12 03:07:20;;;;;;;16.27;14.87;;;;;;;;;;1747598;81;617833;-75
2022/10/12 03:09:49;;;;;;;15.80;14.33;;;;;;;;;;1747718;81;614974;-75
2022/10/12 03:12:17;;;;;;;19.67;14.93;;;;;;;;;;1693111;81;616934;-74
2022/10/12 03:14:46;;;;;;;16.30;14.97;;;;;;;;;;1723728;81;615202;-75
2022/10/12 03:17:14;;;;;;;16.20;14.67;;;;;;;;;;1715073;81;616930;-75
2022/10/12 03:19:43;;;;;;;16.53;14.80;;;;;;;;;;1644459;84;615836;-75
2022/10/12 03:22:12;;;;;;;16.27;14.97;;;;;;;;;;1692758;81;617764;-77
2022/10/12 03:24:40;;;;;;;16.30;15.03;;;;;;;;;;1723019;81;615124;-77
2022/10/12 03:27:09;;;;;;;16.03;14.67;;;;;;;;;;1739913;81;616940;-76
2022/10/12 03:29:37;;;;;;;16.77;15.13;;;;;;;;;;1723407;81;616916;-74
2022/10/12 03:32:06;;;;;;;16.63;15.13;;;;;;;;;;1740014;80;616934;-75
2022/10/12 03:34:35;;;;;;;15.43;14.10;;;;;;;;;;1747376;81;616884;-74
2022/10/12 03:37:04;;;;;;;16.63;15.20;;;;;;;;;;1715229;81;616837;-75
2022/10/12 03:39:34;;;;;;;17.13;15.13;;;;;;;;;;1723664;81;617034;-75
2022/10/12 03:42:03;;;;;;;17.67;15.13;;;;;;;;;;1739742;81;617899;-75
2022/10/12 03:44:31;;;;;;;17.27;15.43;;;;;;;;;;1747378;80;616950;-75
2022/10/12 03:47:00;;;;;;;16.17;14.87;;;;;;;;;;1692306;81;616964;-75
2022/10/12 03:49:28;;;;;;;16.87;15.13;;;;;;;;;;1701181;81;617275;-75
2022/10/12 03:51:58;;;;;;;16.90;15.37;;;;;;;;;;1715048;81;617680;-75
2022/10/12 03:54:27;;;;;;;16.57;15.17;;;;;;;;;;1747225;80;616982;-75
2022/10/12 03:56:56;;;;;;;16.33;15.03;;;;;;;;;;1715246;81;617068;-75
2022/10/12 03:59:24;;;;;;;16.47;14.90;;;;;;;;;;1701390;81;616925;-75
2022/10/12 04:01:54;;;;;;;17.50;15.90;;;;;;;;;;1687770;82;615809;-75
2022/10/12 04:04:22;;;;;;;18.17;16.33;;;;;;;;;;1684550;82;617098;-74
2022/10/12 04:06:51;;;;;;;17.07;15.60;;;;;;;;;;1684109;82;615159;-75
2022/10/12 04:09:19;;;;;;;17.43;15.77;;;;;;;;;;1676824;82;656838;-75
2022/10/12 04:11:48;;;;;;;16.43;15.33;;;;;;;;;;1695340;82;616129;-74
2022/10/12 04:14:18;;;;;;;15.70;14.50;;;;;;;;;;1676911;80;617065;-75
2022/10/12 04:16:47;;;;;;;15.97;14.73;;;;;;;;;;1680414;82;615190;-75
2022/10/12 04:19:16;;;;;;;16.53;15.00;;;;;;;;;;1648989;82;616970;-76
2022/10/12 04:21:46;;;;;;;17.40;15.53;;;;;;;;;;1680566;82;615041;-75
2022/10/12 04:24:15;;;;;;;18.40;15.17;;;;;;;;;;1648837;82;616836;-74
2022/10/12 04:26:45;;;;;;;16.33;14.70;;;;;;;;;;1674040;83;615957;-75
2022/10/12 04:29:15;;;;;;;16.60;15.20;;;;;;;;;;1648874;83;618024;-75
2022/10/12 04:31:44;;;;;;;15.83;14.63;;;;;;;;;;1684425;82;615153;-75
2022/10/12 04:34:13;;;;;;;17.10;15.27;;;;;;;;;;1677300;81;617063;-75
2022/10/12 04:36:43;;;;;;;16.23;14.80;;;;;;;;;;1650706;85;615171;-75
2022/10/12 04:39:12;;;;;;;16.93;15.30;;;;;;;;;;1669602;83;616874;-75
2022/10/12 04:41:41;;;;;;;16.07;14.57;;;;;;;;;;1699309;83;615027;-75
2022/10/12 04:44:09;;;;;;;15.70;14.20;;;;;;;;;;1648062;83;616850;-75
2022/10/12 04:46:38;;;;;;;15.80;14.40;;;;;;;;;;1675817;83;617028;-75
2022/10/12 04:49:07;;;;;;;15.93;14.47;;;;;;;;;;1691800;83;617055;-75
2022/10/12 04:51:35;;;;;;;15.80;14.17;;;;;;;;;;1644896;85;617086;-75
2022/10/12 04:54:04;;;;;;;15.27;13.83;;;;;;;;;;1666969;81;617089;-75
2022/10/12 04:56:33;;;;;;;15.37;14.07;;;;;;;;;;1718955;82;616963;-75
2022/10/12 04:59:02;;;;;;;15.80;14.27;;;;;;;;;;1711790;81;617085;-75
2022/10/12 05:01:31;;;;;;;15.80;14.13;;;;;;;;;;1631555;86;617107;-75
2022/10/12 05:04:00;;;;;;;15.57;14.10;;;;;;;;;;1669552;83;616983;-75
2022/10/12 05:06:29;;;;;;;17.07;14.67;;;;;;;;;;1612563;86;616988;-75
2022/10/12 05:08:58;;;;;;;20.73;15.20;;;;;;;;;;1638886;85;616966;-75
2022/10/12 05:11:26;;;;;;;17.27;14.43;;;;;;;;;;1632316;86;617148;-75
2022/10/12 05:13:56;;;;;;;15.50;14.30;;;;;;;;;;1638841;84;617050;-76
2022/10/12 05:16:25;;;;;;;15.73;14.27;;;;;;;;;;1645785;85;616939;-74
2022/10/12 05:18:55;;;;;;;15.20;13.77;;;;;;;;;;1646097;85;615393;-75
2022/10/12 05:21:24;;;;;;;15.57;14.30;;;;;;;;;;1631982;86;617023;-75
2022/10/12 05:23:52;;;;;;;16.57;14.83;;;;;;;;;;1631938;86;615144;-75
2022/10/12 05:26:20;;;;;;;16.67;15.03;;;;;;;;;;1632207;86;616945;-75
2022/10/12 05:28:49;;;;;;;15.93;14.50;;;;;;;;;;1676997;83;615044;-75
2022/10/12 05:31:19;;;;;;;15.00;13.83;;;;;;;;;;1688646;82;617119;-74
2022/10/12 05:33:49;;;;;;;15.17;13.70;;;;;;;;;;1674329;82;615241;-75
2022/10/12 05:36:18;;;;;;;16.53;15.10;;;;;;;;;;1688114;82;617099;-75
2022/10/12 05:38:47;;;;;;;15.77;14.30;;;;;;;;;;1696085;82;615253;-75
2022/10/12 05:41:16;;;;;;;15.33;14.13;;;;;;;;;;1711646;82;616984;-75
2022/10/12 05:43:44;;;;;;;17.03;15.30;;;;;;;;;;1631377;84;615925;-75
2022/10/12 05:46:14;;;;;;;16.67;14.87;;;;;;;;;;1629348;84;616957;-80
2022/10/12 05:48:44;;;;;;;16.50;15.27;;;;;;;;;;1679857;84;615237;-75
2022/10/12 05:51:12;;;;;;;16.73;15.30;;;;;;;;;;1724840;82;616901;-75
2022/10/12 05:53:41;;;;;;;16.83;15.27;;;;;;;;;;1710335;82;615237;-74
2022/10/12 05:56:10;;;;;;;16.13;14.80;;;;;;;;;;1723672;82;617817;-75
2022/10/12 05:58:38;;;;;;;16.43;14.37;;;;;;;;;;1657458;84;618139;-74
2022/10/12 06:01:09;;;;;;;14.83;13.37;;;;;;;;;;1702876;82;617814;-74
2022/10/12 06:03:37;;;;;;;14.80;13.60;;;;;;;;;;1732298;82;617890;-75
2022/10/12 06:06:07;;;;;;;15.10;13.67;;;;;;;;;;1724915;82;617967;-75
2022/10/12 06:08:36;;;;;;;15.67;14.27;;;;;;;;;;1657093;84;616889;-75
2022/10/12 06:11:04;;;;;;;17.80;16.20;;;;;;;;;;1648451;83;616957;-74
2022/10/12 06:13:33;;;;;;;17.00;15.60;;;;;;;;;;1679405;83;617884;-75
2022/10/12 06:16:01;;;;;;;18.60;16.70;;;;;;;;;;1702772;82;617851;-75
2022/10/12 06:18:29;;;;;;;18.93;17.23;;;;;;;;;;1689008;82;617038;-75
2022/10/12 06:20:58;;;;;;;18.90;17.13;;;;;;;;;;1630058;84;617968;-76
2022/10/12 06:23:27;;;;;;;18.93;17.17;;;;;;;;;;1732592;82;617875;-74
2022/10/12 06:25:55;;;;;;;19.80;17.90;;;;;;;;;;1725032;82;616945;-75
2022/10/12 06:28:23;;;;;;;19.57;17.80;;;;;;;;;;1710807;82;617941;-74
2022/10/12 06:30:54;;;;;;;19.27;17.50;;;;;;;;;;1732387;82;615746;-74
2022/10/12 06:33:23;;;;;;;19.60;17.90;;;;;;;;;;1657526;84;617225;-74
2022/10/12 06:35:51;;;;;;;20.07;18.20;;;;;;;;;;1679589;84;615955;-74
2022/10/12 06:38:20;;;;;;;20.20;18.50;;;;;;;;;;1650039;84;617979;-74
2022/10/12 06:40:49;;;;;;;19.90;17.73;;;;;;;;;;1679712;84;615980;-74
2022/10/12 06:43:18;;;;;;;20.73;18.77;;;;;;;;;;1672509;84;617203;-75
2022/10/12 06:45:47;;;;;;;18.10;16.37;;;;;;;;;;1657946;84;615093;-74
2022/10/12 06:48:16;;;;;;;18.77;17.10;;;;;;;;;;1650143;84;617794;-75
2022/10/12 06:50:46;;;;;;;18.37;16.80;;;;;;;;;;1710417;82;615255;-74
2022/10/12 06:53:15;;;;;;;18.57;16.80;;;;;;;;;;1650337;84;617017;-75
2022/10/12 06:55:45;;;;;;;19.43;17.67;;;;;;;;;;1657742;84;615196;-75
2022/10/12 06:58:14;;;;;;;20.20;18.10;;;;;;;;;;1704063;82;616982;-76
2022/10/12 07:00:42;;;;;;;18.00;16.50;;;;;;;;;;1732404;81;616354;-75
2022/10/12 07:03:12;;;;;;;20.10;17.23;;;;;;;;;;1681930;82;617085;-75
2022/10/12 07:05:40;;;;;;;17.70;16.10;;;;;;;;;;1657238;84;616049;-75
2022/10/12 07:08:09;;;;;;;17.63;16.13;;;;;;;;;;1672262;84;617041;-75
2022/10/12 07:10:39;;;;;;;19.63;17.53;;;;;;;;;;1710229;82;617087;-75
2022/10/12 07:13:07;;;;;;;19.33;17.63;;;;;;;;;;1649525;84;618000;-74
2022/10/12 07:15:36;;;;;;;20.60;17.57;;;;;;;;;;1679526;84;618002;-72
2022/10/12 07:18:04;;;;;;;20.33;18.20;;;;;;;;;;1703846;82;617840;-73
2022/10/12 07:20:33;;;;;;;19.57;17.50;;;;;;;;;;1641187;83;616871;-74
2022/10/12 07:23:01;;;;;;;18.30;16.60;;;;;;;;;;1725020;82;616925;-73
2022/10/12 07:25:30;;;;;;;18.23;16.50;;;;;;;;;;1732215;82;617855;-73
2022/10/12 07:28:04;;;;;;;20.07;18.00;;;;;;;;;;1647938;83;616889;-75
2022/10/12 07:30:31;;;;;;;18.60;16.80;;;;;;;;;;1658238;84;617850;-75
2022/10/12 07:32:59;;;;;;;17.80;16.20;;;;;;;;;;1724801;82;617000;-75
2022/10/12 07:35:28;;;;;;;17.87;16.13;;;;;;;;;;1732332;82;617978;-74
2022/10/12 07:37:57;;;;;;;17.10;15.53;;;;;;;;;;1724795;82;617838;-75
2022/10/12 07:40:26;;;;;;;18.00;16.53;;;;;;;;;;1732310;82;617860;-76
2022/10/12 07:42:55;;;;;;;16.90;15.40;;;;;;;;;;1732245;82;615918;-75
2022/10/12 07:45:27;;;;;;;16.80;15.40;;;;;;;;;;1732264;82;617730;-80
2022/10/12 07:47:57;;;;;;;17.73;16.33;;;;;;;;;;1649746;84;617801;-79
2022/10/12 07:50:26;;;;;;;53.63;38.90;;;;;;;;;;1657147;84;617937;-81
2022/10/12 07:52:55;;;;;;;58.47;38.83;;;;;;;;;;1677108;84;617971;-79
2022/10/12 07:55:24;;;;;;;38.40;31.17;;;;;;;;;;1657177;84;617291;-79
2022/10/12 07:57:53;;;;;;;21.73;19.43;;;;;;;;;;1711215;82;615698;-80
2022/10/12 08:00:23;;;;;;;17.53;15.83;;;;;;;;;;1732179;80;617882;-80
2022/10/12 08:02:52;;;;;;;16.30;14.47;;;;;;;;;;1732433;82;615858;-80
2022/10/12 08:05:22;;;;;;;15.97;14.43;;;;;;;;;;1732404;82;617738;-79
2022/10/12 08:07:51;;;;;;;15.50;14.20;;;;;;;;;;1657291;84;615810;-79
2022/10/12 08:10:20;;;;;;;14.93;13.73;;;;;;;;;;1672196;84;616799;-79
2022/10/12 08:12:51;;;;;;;14.13;13.13;;;;;;;;;;1657254;84;615836;-81
2022/10/12 08:15:19;;;;;;;18.77;13.33;;;;;;;;;;1657001;84;617950;-80
2022/10/12 08:17:48;;;;;;;13.90;12.43;;;;;;;;;;1657425;84;615973;-79
2022/10/12 08:20:18;;;;;;;14.40;13.20;;;;;;;;;;1702470;82;617770;-81
2022/10/12 08:22:47;;;;;;;14.23;13.00;;;;;;;;;;1657449;84;616003;-79
2022/10/12 08:25:17;;;;;;;14.07;12.70;;;;;;;;;;1672299;84;617820;-79
2022/10/12 08:27:46;;;;;;;14.40;12.93;;;;;;;;;;1679682;84;615845;-79
2022/10/12 08:30:16;;;;;;;15.33;13.73;;;;;;;;;;1672277;84;618098;-80
2022/10/12 08:32:45;;;;;;;13.80;12.60;;;;;;;;;;1679592;84;615299;-80
2022/10/12 08:35:14;;;;;;;16.53;13.03;;;;;;;;;;1672226;84;617804;-79
2022/10/12 08:37:44;;;;;;;13.50;12.23;;;;;;;;;;1679465;84;615930;-79
2022/10/12 08:40:15;;;;;;;12.50;11.60;;;;;;;;;;1681521;82;617737;-81
2022/10/12 08:42:47;;;;;;;13.23;11.93;;;;;;;;;;1732411;82;615915;-81
2022/10/12 08:45:33;;;;;;;14.27;13.00;;;;;;;;;;1724666;82;618076;-80
2022/10/12 08:48:04;;;;;;;13.53;12.43;;;;;;;;;;1703118;82;617743;-80
2022/10/12 08:50:35;;;;;;;13.23;12.30;;;;;;;;;;1732619;81;617859;-80
2022/10/12 08:53:05;;;;;;;13.60;12.30;;;;;;;;;;1702730;82;617002;-80
2022/10/12 08:55:38;;;;;;;13.47;12.33;;;;;;;;;;1710712;82;617921;-81
2022/10/12 08:58:11;;;;;;;13.80;12.70;;;;;;;;;;1724805;82;616580;-80
2022/10/12 09:00:39;;;;;;;13.90;12.80;;;;;;;;;;1732041;82;617867;-80
2022/10/12 09:03:11;;;;;;;14.13;12.83;;;;;;;;;;1724701;80;616946;-80
2022/10/12 09:05:41;;;;;;;14.83;13.73;;;;;;;;;;1732395;82;615851;-80
2022/10/12 09:08:13;;;;;;;13.73;12.53;;;;;;;;;;1649862;84;617771;-80
2022/10/12 09:10:45;;;;;;;13.43;12.33;;;;;;;;;;1656813;84;615899;-80
2022/10/12 09:13:21;;;;;;;14.20;13.10;;;;;;;;;;1672482;84;616994;-80
2022/10/12 09:15:55;;;;;;;13.57;12.60;;;;;;;;;;1732590;82;615861;-85
2022/10/12 09:18:26;;;;;;;13.17;12.27;;;;;;;;;;1732170;82;616966;-81
2022/10/12 09:20:56;;;;;;;14.03;12.70;;;;;;;;;;1732002;82;615956;-82
2022/10/12 09:23:27;;;;;;;13.73;12.40;;;;;;;;;;1657216;84;617851;-86
2022/10/12 09:25:58;;;;;;;12.83;11.77;;;;;;;;;;1672450;84;617861;-81
2022/10/12 09:28:28;;;;;;;13.30;12.10;;;;;;;;;;1679635;84;616970;-81
2022/10/12 09:31:01;;;;;;;14.27;12.83;;;;;;;;;;1650091;84;617881;-80
2022/10/12 09:33:32;;;;;;;13.93;12.40;;;;;;;;;;1677143;83;617134;-80
2022/10/12 09:36:01;;;;;;;13.30;12.20;;;;;;;;;;1724997;80;617763;-80
2022/10/12 09:38:29;;;;;;;15.10;13.20;;;;;;;;;;1732389;82;617874;-82
2022/10/12 09:40:58;;;;;;;13.73;12.73;;;;;;;;;;1703781;82;617098;-81
2022/10/12 09:43:27;;;;;;;14.00;12.70;;;;;;;;;;1732469;82;618010;-81
2022/10/12 09:45:57;;;;;;;13.80;12.70;;;;;;;;;;1648495;83;617013;-80
2022/10/12 09:48:26;;;;;;;12.93;11.67;;;;;;;;;;1657906;84;617022;-81
2022/10/12 09:50:57;;;;;;;13.57;12.43;;;;;;;;;;1653026;84;616903;-80
2022/10/12 09:53:30;;;;;;;12.37;11.57;;;;;;;;;;1683926;83;617913;-81
2022/10/12 09:56:01;;;;;;;12.90;11.93;;;;;;;;;;1698452;83;616931;-81
2022/10/12 09:58:32;;;;;;;12.57;11.37;;;;;;;;;;1732553;82;617786;-82
2022/10/12 10:01:31;;;;;;;13.63;12.40;;;;;;;;;;1724699;82;618002;-81
2022/10/12 10:04:12;;;;;;;12.33;11.17;;;;;;;;;;1651299;80;617820;-82
2022/10/12 10:06:43;;;;;;;12.93;11.73;;;;;;;;;;1732645;82;616180;-78
2022/10/12 10:09:31;;;;;;;12.27;11.30;;;;;;;;;;1724994;82;617807;-81
2022/10/12 10:12:02;;;;;;;11.20;10.40;;;;;;;;;;1699831;82;616906;-82
2022/10/12 10:14:33;;;;;;;12.87;11.83;;;;;;;;;;1732334;80;617882;-83
2022/10/12 10:17:02;;;;;;;13.60;12.20;;;;;;;;;;1724878;82;616971;-81
2022/10/12 10:19:31;;;;;;;13.97;12.40;;;;;;;;;;1732561;82;617887;-82
2022/10/12 10:22:06;;;;;;;13.07;11.80;;;;;;;;;;1724797;82;617767;-81
2022/10/12 10:24:35;;;;;;;14.10;12.70;;;;;;;;;;1732502;82;617868;-82
2022/10/12 10:27:05;;;;;;;14.07;13.10;;;;;;;;;;1703242;82;617749;-82
2022/10/12 10:29:35;;;;;;;14.43;13.30;;;;;;;;;;1730927;80;617054;-85
2022/10/12 10:32:13;;;;;;;14.57;13.20;;;;;;;;;;1700882;80;617811;-82
2022/10/12 10:34:43;;;;;;;14.60;13.17;;;;;;;;;;1679526;83;615883;-83
2022/10/12 10:37:17;;;;;;;14.47;12.97;;;;;;;;;;1672379;84;617836;-81
2022/10/12 10:39:46;;;;;;;14.87;13.03;;;;;;;;;;1680997;84;615816;-82
2022/10/12 10:42:19;;;;;;;14.20;12.90;;;;;;;;;;1672429;84;617896;-82
2022/10/12 10:44:49;;;;;;;13.80;12.60;;;;;;;;;;1679811;84;615642;-82
2022/10/12 10:47:19;;;;;;;14.63;13.33;;;;;;;;;;1724990;82;617916;-82
2022/10/12 10:49:49;;;;;;;14.50;13.30;;;;;;;;;;1732534;82;615848;-82
2022/10/12 10:52:24;;;;;;;14.30;12.90;;;;;;;;;;1724642;82;617839;-82
2022/10/12 10:55:08;;;;;;;13.93;12.80;;;;;;;;;;1732532;82;616168;-83
2022/10/12 10:57:38;;;;;;;14.20;12.90;;;;;;;;;;1732255;82;617851;-83
2022/10/12 11:00:11;;;;;;;13.80;12.60;;;;;;;;;;1680185;82;616882;-83
2022/10/12 11:02:41;;;;;;;14.63;13.20;;;;;;;;;;1652871;84;617884;-83
2022/10/12 11:05:14;;;;;;;13.53;12.53;;;;;;;;;;1725191;81;617745;-85
2022/10/12 11:07:45;;;;;;;12.60;11.40;;;;;;;;;;1732575;82;615978;-85
2022/10/12 11:10:18;;;;;;;12.20;11.20;;;;;;;;;;1725220;82;617836;-85
2022/10/12 11:12:49;;;;;;;12.73;11.73;;;;;;;;;;1732613;82;615218;-83
2022/10/12 11:15:19;;;;;;;13.13;12.03;;;;;;;;;;1722554;82;616994;-84
2022/10/12 11:17:50;;;;;;;12.87;11.97;;;;;;;;;;1733869;80;615146;-84
2022/10/12 11:20:31;;;;;;;13.07;12.13;;;;;;;;;;1647897;85;617857;-83
2022/10/12 11:23:01;;;;;;;13.17;12.17;;;;;;;;;;1671922;83;617847;-83
2022/10/12 11:25:32;;;;;;;14.23;12.90;;;;;;;;;;1656703;84;617696;-84
2022/10/12 11:28:01;;;;;;;13.00;12.10;;;;;;;;;;1702779;82;617090;-82
2022/10/12 11:30:31;;;;;;;14.60;13.10;;;;;;;;;;1733118;82;617792;-84
2022/10/12 11:33:01;;;;;;;13.70;12.70;;;;;;;;;;1704692;82;617752;-83
2022/10/12 11:35:32;;;;;;;13.57;12.27;;;;;;;;;;1710821;82;617081;-84
2022/10/12 11:38:04;;;;;;;12.93;11.90;;;;;;;;;;1703591;82;617853;-83
2022/10/12 11:40:34;;;;;;;12.47;11.60;;;;;;;;;;1732569;82;617869;-83
2022/10/12 11:43:04;;;;;;;13.40;12.30;;;;;;;;;;1724961;82;617030;-82
2022/10/12 11:45:35;;;;;;;13.67;12.60;;;;;;;;;;1710320;82;617274;-83
2022/10/12 11:48:07;;;;;;;13.37;12.17;;;;;;;;;;1650270;84;616958;-84
2022/10/12 11:50:37;;;;;;;14.00;12.63;;;;;;;;;;1679799;84;617927;-82
2022/10/12 11:53:09;;;;;;;14.23;12.93;;;;;;;;;;1672452;84;616904;-83
2022/10/12 11:55:42;;;;;;;13.60;12.60;;;;;;;;;;1656091;84;616944;-85
2022/10/12 11:58:16;;;;;;;13.83;13.03;;;;;;;;;;1650242;84;616851;-83
2022/10/12 12:00:49;;;;;;;14.17;13.17;;;;;;;;;;1679806;84;615745;-82
2022/10/12 12:03:19;;;;;;;13.40;12.40;;;;;;;;;;1649801;84;616974;-84
2022/10/12 12:05:49;;;;;;;13.43;12.43;;;;;;;;;;1679239;83;615811;-82
2022/10/12 12:08:25;;;;;;;12.17;11.47;;;;;;;;;;1672753;84;618001;-83
2022/10/12 12:10:56;;;;;;;12.53;11.53;;;;;;;;;;1676629;84;615119;-83
2022/10/12 12:13:27;;;;;;;13.03;11.93;;;;;;;;;;1656805;84;617810;-83
2022/10/12 12:16:14;;;;;;;13.23;12.07;;;;;;;;;;1672647;84;617754;-82
2022/10/12 12:19:01;;;;;;;12.87;11.97;;;;;;;;;;1679756;84;615760;-83
2022/10/12 12:21:34;;;;;;;12.53;11.73;;;;;;;;;;1679904;84;617065;-83
2022/10/12 12:24:02;;;;;;;13.43;12.43;;;;;;;;;;1699677;82;617017;-82
2022/10/12 12:26:32;;;;;;;13.80;12.73;;;;;;;;;;1733044;82;617048;-82
2022/10/12 12:29:09;;;;;;;13.67;12.40;;;;;;;;;;1728150;82;616957;-84
2022/10/12 12:31:39;;;;;;;13.67;12.67;;;;;;;;;;1712163;82;617053;-83
2022/10/12 12:34:11;;;;;;;13.37;12.20;;;;;;;;;;1724481;82;620832;-83
2022/10/12 12:36:43;;;;;;;12.50;11.50;;;;;;;;;;1655970;84;618114;-83
2022/10/12 12:39:22;;;;;;;12.70;12.00;;;;;;;;;;1671179;84;616957;-83
2022/10/12 12:41:52;;;;;;;12.27;11.47;;;;;;;;;;1678486;84;615901;-83
2022/10/12 12:44:42;;;;;;;12.70;12.00;;;;;;;;;;1678507;84;617941;-83
2022/10/12 12:47:21;;;;;;;13.27;12.33;;;;;;;;;;1645718;84;617905;-83
2022/10/12 12:49:52;;;;;;;13.23;12.27;;;;;;;;;;1709087;82;616073;-83
2022/10/12 12:52:23;;;;;;;12.30;11.33;;;;;;;;;;1701921;82;617137;-83
2022/10/12 12:55:08;;;;;;;13.60;12.60;;;;;;;;;;1731143;81;615987;-83
2022/10/12 12:57:44;;;;;;;13.07;12.10;;;;;;;;;;1677962;84;617048;-83
2022/10/12 13:00:20;;;;;;;12.90;12.17;;;;;;;;;;1723507;82;617910;-83
2022/10/12 13:02:57;;;;;;;13.47;12.47;;;;;;;;;;1709510;82;615787;-82
2022/10/12 13:05:36;;;;;;;13.47;12.57;;;;;;;;;;1677994;83;617110;-83
2022/10/12 13:08:13;;;;;;;14.53;13.50;;;;;;;;;;1723669;82;616871;-82
2022/10/12 13:10:46;;;;;;;15.60;14.03;;;;;;;;;;1731023;82;616005;-82
2022/10/12 13:13:21;;;;;;;15.37;14.27;;;;;;;;;;1723532;82;617947;-82
2022/10/12 13:15:56;;;;;;;13.33;12.43;;;;;;;;;;1677663;84;615979;-82
2022/10/12 13:18:42;;;;;;;13.30;12.60;;;;;;;;;;1731261;82;617879;-86
2022/10/12 13:21:13;;;;;;;13.47;12.30;;;;;;;;;;1646459;84;617952;-82
2022/10/12 13:23:43;;;;;;;13.83;12.87;;;;;;;;;;1656059;84;616022;-81
2022/10/12 13:26:14;;;;;;;12.47;11.63;;;;;;;;;;1671476;84;617801;-84
2022/10/12 13:28:46;;;;;;;13.70;12.37;;;;;;;;;;1731253;82;615145;-82
2022/10/12 13:31:16;;;;;;;12.60;11.70;;;;;;;;;;1723369;82;617816;-82
2022/10/12 13:33:49;;;;;;;11.70;10.83;;;;;;;;;;1655983;84;615840;-83
2022/10/12 13:36:20;;;;;;;13.37;12.17;;;;;;;;;;1723436;82;617905;-83
2022/10/12 13:38:50;;;;;;;11.50;10.60;;;;;;;;;;1729559;80;616172;-84
2022/10/12 13:41:20;;;;;;;12.00;11.20;;;;;;;;;;1701436;82;617929;-83
2022/10/12 13:43:55;;;;;;;12.17;11.30;;;;;;;;;;1729266;80;615843;-84
2022/10/12 13:46:38;;;;;;;12.50;11.70;;;;;;;;;;1731075;82;616670;-84
2022/10/12 13:49:12;;;;;;;13.17;12.13;;;;;;;;;;1723383;82;618053;-82
2022/10/12 13:51:41;;;;;;;14.93;13.77;;;;;;;;;;1731024;82;615820;-82
2022/10/12 13:54:17;;;;;;;12.47;11.50;;;;;;;;;;1647947;83;616958;-84
2022/10/12 13:56:48;;;;;;;12.57;11.77;;;;;;;;;;1655713;84;615887;-83
2022/10/12 13:59:20;;;;;;;13.03;11.90;;;;;;;;;;1670663;84;616994;-82
2022/10/12 14:01:50;;;;;;;13.93;12.83;;;;;;;;;;1655299;84;615832;-83
2022/10/12 14:04:20;;;;;;;13.13;12.00;;;;;;;;;;1670520;84;617829;-84
2022/10/12 14:06:51;;;;;;;13.07;11.87;;;;;;;;;;1677245;83;615989;-83
2022/10/12 14:09:20;;;;;;;12.40;11.60;;;;;;;;;;1670573;84;617118;-83
2022/10/12 14:11:50;;;;;;;13.67;12.60;;;;;;;;;;1654966;84;615847;-84
2022/10/12 14:14:22;;;;;;;12.70;12.00;;;;;;;;;;1701665;82;618017;-83
2022/10/12 14:16:51;;;;;;;13.50;12.70;;;;;;;;;;1731026;82;616085;-84
2022/10/12 14:19:23;;;;;;;13.47;12.57;;;;;;;;;;1711556;82;617843;-84
2022/10/12 14:21:52;;;;;;;13.63;12.57;;;;;;;;;;1707332;82;616063;-82
2022/10/12 14:24:23;;;;;;;13.60;12.50;;;;;;;;;;1654886;84;618112;-82
2022/10/12 14:26:54;;;;;;;13.33;12.23;;;;;;;;;;1654506;84;616013;-83